createdAt,value
2023-04-09T00:00:26.138Z,7.78
2023-04-09T00:05:49.336Z,7.79
2023-04-09T00:10:53.399Z,7.81
2023-04-09T00:15:56.493Z,7.86
2023-04-09T00:20:59.492Z,7.89
2023-04-09T00:26:02.389Z,7.94
2023-04-09T00:31:05.697Z,7.98
2023-04-09T00:36:08.659Z,8.00
2023-04-09T00:41:11.720Z,8.01
2023-04-09T00:46:14.824Z,7.99
2023-04-09T00:51:18.006Z,8.02
2023-04-09T00:56:21.616Z,8.03
2023-04-09T01:01:24.586Z,8.00
2023-04-09T01:06:52.219Z,7.95
2023-04-09T01:12:36.994Z,7.87
2023-04-09T01:17:48.619Z,7.76
2023-04-09T01:23:19.042Z,7.70
2023-04-09T01:28:36.993Z,7.67
2023-04-09T01:33:41.087Z,7.63
2023-04-09T01:38:44.158Z,7.56
2023-04-09T01:43:48.248Z,7.52
2023-04-09T01:48:51.361Z,7.51
2023-04-09T01:53:54.612Z,7.46
2023-04-09T01:58:57.418Z,7.41
2023-04-09T02:04:05.318Z,7.39
2023-04-09T02:09:09.430Z,7.40
2023-04-09T02:14:12.240Z,7.42
2023-04-09T02:19:15.720Z,7.46
2023-04-09T02:24:18.623Z,7.48
2023-04-09T02:29:21.631Z,7.47
2023-04-09T02:34:24.688Z,7.44
2023-04-09T02:39:27.640Z,7.46
2023-04-09T02:44:30.722Z,7.47
2023-04-09T02:49:33.608Z,7.50
2023-04-09T02:54:36.509Z,7.50
2023-04-09T02:59:40.746Z,7.47
2023-04-09T03:04:43.581Z,7.45
2023-04-09T03:09:46.437Z,7.44
2023-04-09T03:14:49.263Z,7.39
2023-04-09T03:19:52.492Z,7.37
2023-04-09T03:24:56.253Z,7.31
2023-04-09T03:29:59.208Z,7.30
2023-04-09T03:35:02.271Z,7.33
2023-04-09T03:40:06.537Z,7.31
2023-04-09T03:45:09.799Z,7.21
2023-04-09T03:50:12.718Z,7.05
2023-04-09T03:55:15.572Z,6.91
2023-04-09T04:00:18.540Z,6.76
2023-04-09T04:05:25.521Z,6.59
2023-04-09T04:10:28.664Z,6.53
2023-04-09T04:15:31.720Z,6.46
2023-04-09T04:20:35.116Z,6.37
2023-04-09T04:25:42.019Z,6.25
2023-04-09T04:30:45.063Z,6.19
2023-04-09T04:35:47.952Z,6.18
2023-04-09T04:40:50.852Z,6.22
2023-04-09T04:45:54.166Z,6.33
2023-04-09T04:51:01.397Z,6.46
2023-04-09T04:56:05.345Z,6.57
2023-04-09T05:01:08.409Z,6.71
2023-04-09T05:06:12.092Z,6.83
2023-04-09T05:11:17.010Z,6.97
2023-04-09T05:16:20.876Z,7.10
2023-04-09T05:21:23.715Z,7.22
2023-04-09T05:26:27.166Z,7.35
2023-04-09T05:31:30.033Z,7.47
2023-04-09T05:36:32.904Z,7.52
2023-04-09T05:41:37.517Z,7.58
2023-04-09T05:46:40.594Z,7.70
2023-04-09T05:51:43.458Z,7.83
2023-04-09T05:56:46.308Z,8.11
2023-04-09T06:01:49.313Z,8.42
2023-04-09T06:06:52.311Z,8.70
2023-04-09T06:11:56.520Z,8.83
2023-04-09T06:17:00.080Z,8.98
2023-04-09T06:22:03.015Z,9.18
2023-04-09T06:27:06.100Z,9.34
2023-04-09T06:32:08.996Z,9.48
2023-04-09T06:37:11.872Z,9.60
2023-04-09T06:42:14.846Z,9.73
2023-04-09T06:47:17.851Z,9.88
2023-04-09T06:52:20.787Z,10.03
2023-04-09T06:57:23.855Z,10.18
2023-04-09T07:02:27.756Z,10.35
2023-04-09T07:07:31.771Z,10.52
2023-04-09T07:12:35.723Z,10.69
2023-04-09T07:17:38.729Z,10.90
2023-04-09T07:22:43.372Z,11.08
2023-04-09T07:27:46.315Z,11.30
2023-04-09T07:32:49.272Z,11.44
2023-04-09T07:37:52.303Z,11.58
2023-04-09T07:42:56.020Z,11.72
2023-04-09T07:47:59.067Z,11.92
2023-04-09T07:53:02.116Z,12.12
2023-04-09T07:58:06.068Z,12.38
2023-04-09T08:03:10.091Z,12.61
2023-04-09T08:08:13.357Z,12.71
2023-04-09T08:13:17.016Z,12.57
2023-04-09T08:18:19.901Z,12.52
2023-04-09T08:23:22.731Z,12.55
2023-04-09T08:28:25.698Z,12.45
2023-04-09T08:33:28.574Z,12.72
2023-04-09T08:38:31.946Z,12.90
2023-04-09T08:43:56.487Z,13.02
2023-04-09T08:48:57.971Z,13.19
2023-04-09T08:54:04.368Z,13.27
2023-04-09T08:59:09.584Z,13.53
2023-04-09T09:04:12.665Z,13.71
2023-04-09T09:09:16.697Z,13.89
2023-04-09T09:14:19.874Z,14.07
2023-04-09T09:19:25.758Z,14.18
2023-04-09T09:24:29.049Z,14.21
2023-04-09T09:29:31.994Z,14.40
2023-04-09T09:34:34.824Z,14.53
2023-04-09T09:39:46.661Z,14.59
2023-04-09T09:44:50.638Z,14.81
2023-04-09T09:49:54.650Z,14.94
2023-04-09T09:54:58.942Z,14.84
2023-04-09T10:00:03.896Z,14.91
2023-04-09T10:05:07.711Z,15.13
2023-04-09T10:10:10.696Z,15.30
2023-04-09T10:15:13.649Z,15.14
2023-04-09T10:21:10.139Z,14.77
2023-04-09T10:26:12.946Z,14.89
2023-04-09T10:31:16.035Z,15.21
2023-04-09T10:36:19.072Z,15.17
2023-04-09T10:41:23.634Z,15.04
2023-04-09T10:46:36.866Z,14.92
2023-04-09T10:51:40.435Z,14.79
2023-04-09T10:57:24.617Z,14.82
2023-04-09T11:02:45.733Z,14.97
2023-04-09T11:08:08.207Z,15.83
2023-04-09T11:13:15.832Z,17.61
2023-04-09T11:18:26.686Z,19.84
2023-04-09T11:23:29.792Z,20.62
2023-04-09T11:28:34.750Z,19.45
2023-04-09T11:33:37.684Z,17.91
2023-04-09T11:38:40.497Z,17.55
2023-04-09T11:43:43.455Z,17.11
2023-04-09T11:48:46.852Z,16.83
2023-04-09T11:53:49.866Z,17.48
2023-04-09T11:58:52.790Z,18.35
2023-04-09T12:03:56.324Z,20.41
2023-04-09T12:08:59.628Z,19.80
2023-04-09T12:14:03.063Z,19.31
2023-04-09T12:19:09.828Z,18.94
2023-04-09T12:24:13.049Z,18.24
2023-04-09T12:29:20.690Z,17.91
2023-04-09T12:34:23.493Z,18.01
2023-04-09T12:39:26.453Z,17.72
2023-04-09T12:44:29.305Z,17.40
2023-04-09T12:49:33.155Z,17.12
2023-04-09T12:54:36.237Z,17.15
2023-04-09T12:59:39.080Z,17.30
2023-04-09T13:04:42.785Z,17.90
2023-04-09T13:09:46.131Z,17.86
2023-04-09T13:14:49.838Z,17.59
2023-04-09T13:19:52.826Z,17.20
2023-04-09T13:24:55.780Z,16.91
2023-04-09T13:29:58.697Z,16.64
2023-04-09T13:35:01.847Z,16.59
2023-04-09T13:40:06.041Z,16.68
2023-04-09T13:45:09.372Z,16.54
2023-04-09T13:50:13.810Z,16.51
2023-04-09T13:55:16.754Z,16.40
2023-04-09T14:00:20.733Z,16.30
2023-04-09T14:05:23.621Z,15.98
2023-04-09T14:10:27.672Z,16.40
2023-04-09T14:15:30.526Z,20.95
2023-04-09T14:20:35.610Z,23.13
2023-04-09T14:25:38.634Z,22.00
2023-04-09T14:30:41.511Z,22.32
2023-04-09T14:35:44.447Z,24.99
2023-04-09T14:40:47.526Z,27.04
2023-04-09T14:45:50.663Z,28.14
2023-04-09T14:50:53.549Z,29.19
2023-04-09T14:55:56.408Z,28.82
2023-04-09T15:00:59.256Z,26.78
2023-04-09T15:06:02.190Z,25.79
2023-04-09T15:11:05.335Z,25.90
2023-04-09T15:16:08.535Z,23.18
2023-04-09T15:21:11.478Z,20.58
2023-04-09T15:26:14.341Z,19.28
2023-04-09T15:31:17.466Z,19.10
2023-04-09T15:36:20.438Z,18.64
2023-04-09T15:41:24.156Z,18.23
2023-04-09T15:46:27.130Z,17.65
2023-04-09T15:51:30.098Z,17.22
2023-04-09T15:56:33.119Z,17.06
2023-04-09T16:01:36.374Z,16.77
2023-04-09T16:06:39.639Z,16.62
2023-04-09T16:11:42.556Z,16.38
2023-04-09T16:16:49.985Z,16.11
2023-04-09T16:21:53.250Z,15.76
2023-04-09T16:26:57.033Z,15.50
2023-04-09T16:31:59.968Z,15.33
2023-04-09T16:37:03.017Z,15.18
2023-04-09T16:42:05.989Z,14.96
2023-04-09T16:47:09.207Z,14.72
2023-04-09T16:52:12.103Z,14.55
2023-04-09T16:57:15.611Z,14.36
2023-04-09T17:02:21.727Z,14.18
2023-04-09T17:07:24.834Z,13.97
2023-04-09T17:12:27.854Z,13.77
2023-04-09T17:17:31.525Z,13.60
2023-04-09T17:22:35.318Z,13.44
2023-04-09T17:27:38.485Z,13.27
2023-04-09T17:32:43.758Z,13.15
2023-04-09T17:37:46.903Z,13.06
2023-04-09T17:42:50.033Z,12.89
2023-04-09T17:47:53.226Z,12.68
2023-04-09T17:52:56.767Z,12.50
2023-04-09T17:57:59.646Z,12.38
2023-04-09T18:03:03.092Z,12.26
2023-04-09T18:08:07.370Z,12.15
2023-04-09T18:13:10.700Z,12.04
2023-04-09T18:18:13.619Z,11.92
2023-04-09T18:23:16.869Z,11.80
2023-04-09T18:28:19.760Z,11.64
2023-04-09T18:33:22.961Z,11.53
2023-04-09T18:38:28.699Z,11.48
2023-04-09T18:43:32.008Z,11.41
2023-04-09T18:48:35.197Z,11.32
2023-04-09T18:53:38.132Z,11.26
2023-04-09T18:58:42.210Z,11.22
2023-04-09T19:03:46.596Z,11.18
2023-04-09T19:08:50.406Z,11.15
2023-04-09T19:13:53.885Z,11.12
2023-04-09T19:18:56.823Z,11.12
2023-04-09T19:24:00.432Z,11.10
2023-04-09T19:29:05.379Z,11.04
2023-04-09T19:34:10.770Z,11.01
2023-04-09T19:39:13.842Z,11.00
2023-04-09T19:44:16.786Z,10.99
2023-04-09T19:49:20.537Z,10.97
2023-04-09T19:54:23.681Z,10.94
2023-04-09T19:59:26.573Z,10.91
2023-04-09T20:04:31.055Z,10.90
2023-04-09T20:09:35.794Z,10.86
2023-04-09T20:14:39.461Z,10.83
2023-04-09T20:19:42.623Z,10.81
2023-04-09T20:24:45.708Z,10.78
2023-04-09T20:29:49.543Z,10.73
2023-04-09T20:34:52.440Z,10.68
2023-04-09T20:39:55.751Z,10.65
2023-04-09T20:45:01.372Z,10.61
2023-04-09T20:50:05.929Z,10.55
2023-04-09T20:55:09.358Z,10.47
2023-04-09T21:00:13.128Z,10.39
2023-04-09T21:05:23.288Z,10.30
2023-04-09T21:10:27.283Z,10.15
2023-04-09T21:15:30.480Z,9.99
2023-04-09T21:20:33.300Z,9.83
2023-04-09T21:25:36.382Z,9.69
2023-04-09T21:30:39.372Z,9.57
2023-04-09T21:35:42.218Z,9.48
2023-04-09T21:40:48.223Z,9.39
2023-04-09T21:45:51.208Z,9.27
2023-04-09T21:50:54.135Z,9.16
2023-04-09T21:55:57.081Z,9.06
2023-04-09T22:00:59.951Z,9.00
2023-04-09T22:06:03.111Z,8.93
2023-04-09T22:11:05.966Z,8.86
2023-04-09T22:16:09.185Z,8.78
2023-04-09T22:21:16.592Z,8.71
2023-04-09T22:26:19.842Z,8.64
2023-04-09T22:31:22.955Z,8.55
2023-04-09T22:36:27.322Z,8.46
2023-04-09T22:41:30.210Z,8.39
2023-04-09T22:46:34.889Z,8.34
2023-04-09T22:51:40.179Z,8.28
2023-04-09T22:56:45.367Z,8.21
2023-04-09T23:01:48.692Z,8.15
2023-04-09T23:06:51.669Z,8.08
2023-04-09T23:11:54.593Z,7.99
2023-04-09T23:16:57.997Z,7.89
2023-04-09T23:22:01.004Z,7.83
2023-04-09T23:27:03.966Z,7.80
2023-04-09T23:32:07.078Z,7.73
2023-04-09T23:37:10.280Z,7.66
2023-04-09T23:42:13.090Z,7.58
2023-04-09T23:47:16.512Z,7.51
2023-04-09T23:52:19.561Z,7.43
2023-04-09T23:57:22.558Z,7.35
